sensor_id;sensor_type;location;lat;lon;timestamp;pressure;altitude;pressure_sealevel;temperature;humidity
54389;BME280;40975;50.390;8.640;2022-10-22T00:01:01;98660.94;;;12.57;100.00
54389;BME280;40975;50.390;8.640;2022-10-22T00:03:26;98666.41;;;12.56;100.00
54389;BME280;40975;50.390;8.640;2022-10-22T00:05:51;98671.75;;;12.56;100.00
54389;BME280;40975;50.390;8.640;2022-10-22T00:08:16;98673.91;;;12.60;100.00
54389;BME280;40975;50.390;8.640;2022-10-22T00:10:42;98660.44;;;12.54;100.00
54389;BME280;40975;50.390;8.640;2022-10-22T00:13:07;98673.41;;;12.57;100.00
54389;BME280;40975;50.390;8.640;2022-10-22T00:15:33;98680.41;;;12.50;100.00
54389;BME280;40975;50.390;8.640;2022-10-22T00:17:58;98660.47;;;12.46;100.00
54389;BME280;40975;50.390;8.640;2022-10-22T00:20:23;98661.31;;;12.46;100.00
54389;BME280;40975;50.390;8.640;2022-10-22T00:22:49;98656.31;;;12.43;100.00
54389;BME280;40975;50.390;8.640;2022-10-22T00:25:14;98654.97;;;12.39;100.00
54389;BME280;40975;50.390;8.640;2022-10-22T00:27:40;98646.34;;;12.37;100.00
54389;BME280;40975;50.390;8.640;2022-10-22T00:30:07;98642.66;;;12.38;100.00
54389;BME280;40975;50.390;8.640;2022-10-22T00:32:32;98645.84;;;12.33;100.00
54389;BME280;40975;50.390;8.640;2022-10-22T00:34:57;98638.53;;;12.35;100.00
54389;BME280;40975;50.390;8.640;2022-10-22T00:37:23;98643.19;;;12.33;100.00
54389;BME280;40975;50.390;8.640;2022-10-22T00:39:48;98639.41;;;12.27;100.00
54389;BME280;40975;50.390;8.640;2022-10-22T00:42:17;98645.53;;;12.28;100.00
54389;BME280;40975;50.390;8.640;2022-10-22T00:45:03;98639.06;;;12.22;100.00
54389;BME280;40975;50.390;8.640;2022-10-22T00:47:41;98635.41;;;12.23;100.00
54389;BME280;40975;50.390;8.640;2022-10-22T00:50:13;98638.88;;;12.24;100.00
54389;BME280;40975;50.390;8.640;2022-10-22T00:52:39;98629.91;;;12.25;100.00
54389;BME280;40975;50.390;8.640;2022-10-22T00:55:05;98633.72;;;12.22;100.00
54389;BME280;40975;50.390;8.640;2022-10-22T00:57:31;98625.94;;;12.21;100.00
54389;BME280;40975;50.390;8.640;2022-10-22T00:59:58;98629.59;;;12.20;100.00
54389;BME280;40975;50.390;8.640;2022-10-22T01:02:24;98638.25;;;12.22;100.00
54389;BME280;40975;50.390;8.640;2022-10-22T01:04:49;98637.22;;;12.15;100.00
54389;BME280;40975;50.390;8.640;2022-10-22T01:07:21;98648.88;;;12.22;100.00
54389;BME280;40975;50.390;8.640;2022-10-22T01:12:42;98648.53;;;12.25;100.00
54389;BME280;40975;50.390;8.640;2022-10-22T01:15:27;98646.53;;;12.27;100.00
54389;BME280;40975;50.390;8.640;2022-10-22T01:18:03;98639.22;;;12.29;100.00
54389;BME280;40975;50.390;8.640;2022-10-22T01:20:52;98642.69;;;12.29;100.00
54389;BME280;40975;50.390;8.640;2022-10-22T01:28:57;98633.72;;;12.22;100.00
54389;BME280;40975;50.390;8.640;2022-10-22T01:31:28;98647.03;;;12.31;100.00
54389;BME280;40975;50.390;8.640;2022-10-22T01:33:57;98654.19;;;12.30;100.00
54389;BME280;40975;50.390;8.640;2022-10-22T01:36:24;98653.19;;;12.31;100.00
54389;BME280;40975;50.390;8.640;2022-10-22T01:38:50;98660.16;;;12.32;100.00
54389;BME280;40975;50.390;8.640;2022-10-22T01:41:16;98665.31;;;12.34;100.00
54389;BME280;40975;50.390;8.640;2022-10-22T01:43:41;98664.97;;;12.28;100.00
54389;BME280;40975;50.390;8.640;2022-10-22T01:46:10;98657.34;;;12.34;100.00
54389;BME280;40975;50.390;8.640;2022-10-22T01:48:56;98649.34;;;12.34;100.00
54389;BME280;40975;50.390;8.640;2022-10-22T02:02:28;98667.44;;;12.47;100.00
54389;BME280;40975;50.390;8.640;2022-10-22T02:05:00;98664.78;;;12.47;100.00
54389;BME280;40975;50.390;8.640;2022-10-22T02:07:32;98668.78;;;12.51;100.00
54389;BME280;40975;50.390;8.640;2022-10-22T02:10:00;98657.13;;;12.52;100.00
54389;BME280;40975;50.390;8.640;2022-10-22T02:12:28;98648.63;;;12.56;100.00
54389;BME280;40975;50.390;8.640;2022-10-22T02:14:55;98638.00;;;12.56;100.00
54389;BME280;40975;50.390;8.640;2022-10-22T02:17:22;98648.28;;;12.59;100.00
54389;BME280;40975;50.390;8.640;2022-10-22T02:19:54;98649.78;;;12.62;100.00
54389;BME280;40975;50.390;8.640;2022-10-22T02:22:20;98626.81;;;12.61;100.00
54389;BME280;40975;50.390;8.640;2022-10-22T02:24:46;98639.78;;;12.72;100.00
54389;BME280;40975;50.390;8.640;2022-10-22T02:27:25;98637.25;;;12.71;100.00
54389;BME280;40975;50.390;8.640;2022-10-22T02:30:00;98648.38;;;12.74;100.00
54389;BME280;40975;50.390;8.640;2022-10-22T02:32:32;98642.75;;;12.69;100.00
54389;BME280;40975;50.390;8.640;2022-10-22T02:34:59;98638.78;;;12.65;100.00
54389;BME280;40975;50.390;8.640;2022-10-22T02:37:26;98630.63;;;12.58;100.00
54389;BME280;40975;50.390;8.640;2022-10-22T02:39:53;98638.31;;;12.53;100.00
54389;BME280;40975;50.390;8.640;2022-10-22T02:42:21;98655.47;;;12.51;100.00
54389;BME280;40975;50.390;8.640;2022-10-22T02:44:47;98677.72;;;12.58;100.00
54389;BME280;40975;50.390;8.640;2022-10-22T02:47:12;98678.94;;;12.47;100.00
54389;BME280;40975;50.390;8.640;2022-10-22T02:49:38;98683.09;;;12.41;100.00
54389;BME280;40975;50.390;8.640;2022-10-22T02:52:03;98687.25;;;12.44;100.00
54389;BME280;40975;50.390;8.640;2022-10-22T02:54:28;98678.28;;;12.37;100.00
54389;BME280;40975;50.390;8.640;2022-10-22T02:56:54;98677.13;;;12.39;100.00
54389;BME280;40975;50.390;8.640;2022-10-22T02:59:19;98683.94;;;12.34;100.00
54389;BME280;40975;50.390;8.640;2022-10-22T03:01:44;98666.84;;;12.20;100.00
54389;BME280;40975;50.390;8.640;2022-10-22T03:04:09;98663.81;;;12.23;100.00
54389;BME280;40975;50.390;8.640;2022-10-22T03:06:35;98683.09;;;12.33;100.00
54389;BME280;40975;50.390;8.640;2022-10-22T03:09:00;98669.94;;;12.40;100.00
54389;BME280;40975;50.390;8.640;2022-10-22T03:11:25;98676.63;;;12.36;100.00
54389;BME280;40975;50.390;8.640;2022-10-22T03:13:51;98674.13;;;12.42;100.00
54389;BME280;40975;50.390;8.640;2022-10-22T03:16:16;98685.59;;;12.43;100.00
54389;BME280;40975;50.390;8.640;2022-10-22T03:18:42;98677.44;;;12.36;100.00
54389;BME280;40975;50.390;8.640;2022-10-22T03:21:09;98688.09;;;12.36;100.00
54389;BME280;40975;50.390;8.640;2022-10-22T03:23:35;98686.41;;;12.35;100.00
54389;BME280;40975;50.390;8.640;2022-10-22T03:26:01;98697.56;;;12.31;100.00
54389;BME280;40975;50.390;8.640;2022-10-22T03:28:28;98693.41;;;12.36;100.00
54389;BME280;40975;50.390;8.640;2022-10-22T03:30:53;98705.41;;;12.32;100.00
54389;BME280;40975;50.390;8.640;2022-10-22T03:33:18;98710.22;;;12.28;100.00
54389;BME280;40975;50.390;8.640;2022-10-22T03:35:45;98709.72;;;12.25;100.00
54389;BME280;40975;50.390;8.640;2022-10-22T03:38:12;98694.25;;;12.20;100.00
54389;BME280;40975;50.390;8.640;2022-10-22T03:40:38;98698.41;;;12.23;100.00
54389;BME280;40975;50.390;8.640;2022-10-22T03:43:04;98705.75;;;12.21;100.00
54389;BME280;40975;50.390;8.640;2022-10-22T03:45:29;98710.41;;;12.19;100.00
54389;BME280;40975;50.390;8.640;2022-10-22T03:47:55;98723.19;;;12.15;100.00
54389;BME280;40975;50.390;8.640;2022-10-22T03:50:20;98719.69;;;12.06;100.00
54389;BME280;40975;50.390;8.640;2022-10-22T03:52:45;98722.34;;;12.06;100.00
54389;BME280;40975;50.390;8.640;2022-10-22T03:55:11;98716.03;;;12.07;100.00
54389;BME280;40975;50.390;8.640;2022-10-22T03:57:36;98729.84;;;12.11;100.00
54389;BME280;40975;50.390;8.640;2022-10-22T04:00:03;98731.50;;;12.12;100.00
54389;BME280;40975;50.390;8.640;2022-10-22T04:02:30;98741.97;;;12.13;100.00
54389;BME280;40975;50.390;8.640;2022-10-22T04:04:55;98735.66;;;12.06;100.00
54389;BME280;40975;50.390;8.640;2022-10-22T04:07:20;98733.50;;;12.10;100.00
54389;BME280;40975;50.390;8.640;2022-10-22T04:09:46;98728.34;;;12.08;100.00
54389;BME280;40975;50.390;8.640;2022-10-22T04:12:11;98732.69;;;12.09;100.00
54389;BME280;40975;50.390;8.640;2022-10-22T04:14:36;98741.16;;;12.13;100.00
54389;BME280;40975;50.390;8.640;2022-10-22T04:17:02;98741.31;;;12.11;100.00
54389;BME280;40975;50.390;8.640;2022-10-22T04:19:27;98746.47;;;12.13;100.00
54389;BME280;40975;50.390;8.640;2022-10-22T04:21:52;98750.13;;;12.12;100.00
54389;BME280;40975;50.390;8.640;2022-10-22T04:24:18;98758.94;;;12.12;100.00
54389;BME280;40975;50.390;8.640;2022-10-22T04:26:43;98767.94;;;12.11;100.00
54389;BME280;40975;50.390;8.640;2022-10-22T04:29:10;98746.78;;;12.02;100.00
54389;BME280;40975;50.390;8.640;2022-10-22T04:31:36;98756.44;;;12.11;100.00
54389;BME280;40975;50.390;8.640;2022-10-22T04:34:01;98750.31;;;12.10;100.00
54389;BME280;40975;50.390;8.640;2022-10-22T04:36:27;98739.00;;;12.08;100.00
54389;BME280;40975;50.390;8.640;2022-10-22T04:38:55;98727.03;;;12.12;100.00
54389;BME280;40975;50.390;8.640;2022-10-22T04:41:24;98732.84;;;12.16;100.00
54389;BME280;40975;50.390;8.640;2022-10-22T04:43:52;98754.63;;;12.11;100.00
54389;BME280;40975;50.390;8.640;2022-10-22T04:46:17;98765.41;;;12.10;100.00
54389;BME280;40975;50.390;8.640;2022-10-22T04:48:44;98759.28;;;12.09;100.00
54389;BME280;40975;50.390;8.640;2022-10-22T04:51:12;98760.25;;;12.08;100.00
54389;BME280;40975;50.390;8.640;2022-10-22T04:53:38;98769.56;;;12.04;100.00
54389;BME280;40975;50.390;8.640;2022-10-22T04:56:21;98768.56;;;12.05;100.00
54389;BME280;40975;50.390;8.640;2022-10-22T04:58:59;98765.22;;;12.03;100.00
54389;BME280;40975;50.390;8.640;2022-10-22T05:01:28;98766.56;;;11.99;100.00
54389;BME280;40975;50.390;8.640;2022-10-22T05:03:55;98762.53;;;11.95;100.00
54389;BME280;40975;50.390;8.640;2022-10-22T05:06:22;98767.53;;;11.90;100.00
54389;BME280;40975;50.390;8.640;2022-10-22T05:08:51;98766.69;;;11.89;100.00
54389;BME280;40975;50.390;8.640;2022-10-22T05:11:19;98762.84;;;11.83;100.00
54389;BME280;40975;50.390;8.640;2022-10-22T05:13:45;98753.56;;;11.79;100.00
54389;BME280;40975;50.390;8.640;2022-10-22T05:16:12;98757.19;;;11.78;100.00
54389;BME280;40975;50.390;8.640;2022-10-22T05:18:39;98759.53;;;11.81;100.00
54389;BME280;40975;50.390;8.640;2022-10-22T05:21:08;98765.69;;;11.82;100.00
54389;BME280;40975;50.390;8.640;2022-10-22T05:23:34;98758.72;;;11.89;100.00
54389;BME280;40975;50.390;8.640;2022-10-22T05:26:04;98749.91;;;11.97;100.00
54389;BME280;40975;50.390;8.640;2022-10-22T05:28:30;98756.75;;;12.00;100.00
54389;BME280;40975;50.390;8.640;2022-10-22T05:30:57;98757.25;;;12.03;100.00
54389;BME280;40975;50.390;8.640;2022-10-22T05:33:24;98761.94;;;12.09;100.00
54389;BME280;40975;50.390;8.640;2022-10-22T05:35:50;98758.28;;;12.10;100.00
54389;BME280;40975;50.390;8.640;2022-10-22T05:38:16;98775.56;;;12.15;100.00
54389;BME280;40975;50.390;8.640;2022-10-22T05:40:42;98776.91;;;12.10;100.00
54389;BME280;40975;50.390;8.640;2022-10-22T05:43:08;98773.88;;;12.05;100.00
54389;BME280;40975;50.390;8.640;2022-10-22T05:45:37;98783.72;;;12.05;100.00
54389;BME280;40975;50.390;8.640;2022-10-22T05:48:03;98780.88;;;12.06;100.00
54389;BME280;40975;50.390;8.640;2022-10-22T05:50:29;98791.50;;;12.06;100.00
54389;BME280;40975;50.390;8.640;2022-10-22T05:52:54;98786.38;;;12.05;100.00
54389;BME280;40975;50.390;8.640;2022-10-22T05:55:19;98787.34;;;12.04;100.00
54389;BME280;40975;50.390;8.640;2022-10-22T05:57:45;98789.53;;;12.00;100.00
54389;BME280;40975;50.390;8.640;2022-10-22T06:00:10;98798.00;;;12.04;100.00
54389;BME280;40975;50.390;8.640;2022-10-22T06:02:36;98793.84;;;12.01;100.00
54389;BME280;40975;50.390;8.640;2022-10-22T06:05:01;98803.41;;;11.94;100.00
54389;BME280;40975;50.390;8.640;2022-10-22T06:07:26;98800.44;;;11.89;100.00
54389;BME280;40975;50.390;8.640;2022-10-22T06:09:52;98796.09;;;11.88;100.00
54389;BME280;40975;50.390;8.640;2022-10-22T06:12:18;98804.09;;;11.88;100.00
54389;BME280;40975;50.390;8.640;2022-10-22T06:14:43;98803.56;;;11.84;100.00
54389;BME280;40975;50.390;8.640;2022-10-22T06:17:10;98811.88;;;11.81;100.00
54389;BME280;40975;50.390;8.640;2022-10-22T06:19:36;98816.69;;;11.77;100.00
54389;BME280;40975;50.390;8.640;2022-10-22T06:22:02;98817.56;;;11.86;100.00
54389;BME280;40975;50.390;8.640;2022-10-22T06:24:28;98826.66;;;11.83;100.00
54389;BME280;40975;50.390;8.640;2022-10-22T06:26:53;98831.16;;;11.83;100.00
54389;BME280;40975;50.390;8.640;2022-10-22T06:29:18;98830.00;;;11.86;100.00
54389;BME280;40975;50.390;8.640;2022-10-22T06:31:44;98835.00;;;11.89;100.00
54389;BME280;40975;50.390;8.640;2022-10-22T06:34:11;98844.44;;;11.83;100.00
54389;BME280;40975;50.390;8.640;2022-10-22T06:36:38;98852.13;;;11.86;100.00
54389;BME280;40975;50.390;8.640;2022-10-22T06:39:05;98844.78;;;11.88;100.00
54389;BME280;40975;50.390;8.640;2022-10-22T06:41:30;98849.97;;;11.90;100.00
54389;BME280;40975;50.390;8.640;2022-10-22T06:43:56;98856.28;;;11.89;100.00
54389;BME280;40975;50.390;8.640;2022-10-22T06:46:22;98862.59;;;11.88;100.00
54389;BME280;40975;50.390;8.640;2022-10-22T06:48:55;98860.75;;;11.88;100.00
54389;BME280;40975;50.390;8.640;2022-10-22T06:51:20;98868.06;;;11.86;100.00
54389;BME280;40975;50.390;8.640;2022-10-22T06:53:46;98875.88;;;11.88;100.00
54389;BME280;40975;50.390;8.640;2022-10-22T06:56:14;98885.34;;;11.90;100.00
54389;BME280;40975;50.390;8.640;2022-10-22T06:58:40;98882.00;;;11.88;100.00
54389;BME280;40975;50.390;8.640;2022-10-22T07:01:11;98879.22;;;11.90;100.00
54389;BME280;40975;50.390;8.640;2022-10-22T07:03:37;98889.38;;;11.94;100.00
54389;BME280;40975;50.390;8.640;2022-10-22T07:06:06;98890.25;;;12.03;100.00
54389;BME280;40975;50.390;8.640;2022-10-22T07:08:32;98900.88;;;12.03;100.00
54389;BME280;40975;50.390;8.640;2022-10-22T07:11:10;98904.22;;;12.05;100.00
54389;BME280;40975;50.390;8.640;2022-10-22T07:13:36;98911.41;;;12.13;100.00
54389;BME280;40975;50.390;8.640;2022-10-22T07:16:02;98912.41;;;12.20;100.00
54389;BME280;40975;50.390;8.640;2022-10-22T07:18:28;98909.28;;;12.33;100.00
54389;BME280;40975;50.390;8.640;2022-10-22T07:20:54;98924.28;;;12.42;100.00
54389;BME280;40975;50.390;8.640;2022-10-22T07:23:19;98925.97;;;12.52;100.00
54389;BME280;40975;50.390;8.640;2022-10-22T07:25:44;98918.81;;;12.60;100.00
54389;BME280;40975;50.390;8.640;2022-10-22T07:28:10;98925.81;;;12.70;100.00
54389;BME280;40975;50.390;8.640;2022-10-22T07:30:37;98934.47;;;12.80;100.00
54389;BME280;40975;50.390;8.640;2022-10-22T07:33:03;98944.97;;;12.82;100.00
54389;BME280;40975;50.390;8.640;2022-10-22T07:35:28;98948.63;;;12.89;100.00
54389;BME280;40975;50.390;8.640;2022-10-22T07:37:53;98950.78;;;13.02;100.00
54389;BME280;40975;50.390;8.640;2022-10-22T07:40:19;98958.44;;;13.13;100.00
54389;BME280;40975;50.390;8.640;2022-10-22T07:42:44;98959.94;;;13.24;100.00
54389;BME280;40975;50.390;8.640;2022-10-22T07:45:09;98968.59;;;13.43;100.00
54389;BME280;40975;50.390;8.640;2022-10-22T07:47:35;98959.25;;;13.55;100.00
54389;BME280;40975;50.390;8.640;2022-10-22T07:50:00;98965.72;;;13.77;100.00
54389;BME280;40975;50.390;8.640;2022-10-22T07:52:26;98971.81;;;13.94;100.00
54389;BME280;40975;50.390;8.640;2022-10-22T07:54:51;98977.63;;;13.98;100.00
54389;BME280;40975;50.390;8.640;2022-10-22T07:57:17;98988.53;;;13.88;100.00
54389;BME280;40975;50.390;8.640;2022-10-22T07:59:42;98989.31;;;14.05;100.00
54389;BME280;40975;50.390;8.640;2022-10-22T08:02:08;98993.94;;;14.11;100.00
54389;BME280;40975;50.390;8.640;2022-10-22T08:04:34;99002.59;;;14.22;100.00
54389;BME280;40975;50.390;8.640;2022-10-22T08:06:59;98994.91;;;14.19;100.00
54389;BME280;40975;50.390;8.640;2022-10-22T08:09:25;99009.78;;;14.21;100.00
54389;BME280;40975;50.390;8.640;2022-10-22T08:11:50;99005.41;;;14.28;100.00
54389;BME280;40975;50.390;8.640;2022-10-22T08:14:15;99007.50;;;14.41;100.00
54389;BME280;40975;50.390;8.640;2022-10-22T08:16:41;99007.22;;;14.68;100.00
54389;BME280;40975;50.390;8.640;2022-10-22T08:19:06;99001.16;;;15.05;100.00
54389;BME280;40975;50.390;8.640;2022-10-22T08:21:31;99006.63;;;15.12;100.00
54389;BME280;40975;50.390;8.640;2022-10-22T08:23:57;99018.41;;;15.18;100.00
54389;BME280;40975;50.390;8.640;2022-10-22T08:26:22;99013.75;;;15.35;100.00
54389;BME280;40975;50.390;8.640;2022-10-22T08:28:47;99011.91;;;15.59;100.00
54389;BME280;40975;50.390;8.640;2022-10-22T08:31:13;99024.09;;;15.76;100.00
54389;BME280;40975;50.390;8.640;2022-10-22T08:33:38;99022.56;;;16.27;100.00
54389;BME280;40975;50.390;8.640;2022-10-22T08:36:04;99015.41;;;17.22;100.00
54389;BME280;40975;50.390;8.640;2022-10-22T08:38:30;99024.72;;;18.47;100.00
54389;BME280;40975;50.390;8.640;2022-10-22T08:41:11;99030.72;;;18.49;100.00
54389;BME280;40975;50.390;8.640;2022-10-22T08:49:13;99015.81;;;17.48;100.00
54389;BME280;40975;50.390;8.640;2022-10-22T08:51:41;99027.72;;;17.17;100.00
54389;BME280;40975;50.390;8.640;2022-10-22T08:56:49;99043.44;;;16.98;100.00
54389;BME280;40975;50.390;8.640;2022-10-22T08:59:33;99043.06;;;16.86;100.00
54389;BME280;40975;50.390;8.640;2022-10-22T09:02:01;99041.56;;;16.99;100.00
54389;BME280;40975;50.390;8.640;2022-10-22T09:04:38;99046.91;;;16.99;100.00
54389;BME280;40975;50.390;8.640;2022-10-22T09:07:09;99046.81;;;16.92;100.00
54389;BME280;40975;50.390;8.640;2022-10-22T09:09:39;99061.94;;;17.58;100.00
54389;BME280;40975;50.390;8.640;2022-10-22T09:12:06;99069.56;;;19.02;100.00
54389;BME280;40975;50.390;8.640;2022-10-22T09:14:32;99057.16;;;21.58;99.94
54389;BME280;40975;50.390;8.640;2022-10-22T09:17:11;99060.38;;;21.16;98.96
54389;BME280;40975;50.390;8.640;2022-10-22T09:22:52;99062.97;;;25.29;76.56
54389;BME280;40975;50.390;8.640;2022-10-22T09:25:26;99055.69;;;26.60;67.04
54389;BME280;40975;50.390;8.640;2022-10-22T09:27:52;99071.97;;;27.59;71.71
54389;BME280;40975;50.390;8.640;2022-10-22T09:30:24;99073.94;;;28.06;62.12
54389;BME280;40975;50.390;8.640;2022-10-22T09:33:06;99067.31;;;28.30;62.84
54389;BME280;40975;50.390;8.640;2022-10-22T09:35:58;99070.78;;;28.20;60.93
54389;BME280;40975;50.390;8.640;2022-10-22T09:38:30;99074.03;;;28.17;62.60
54389;BME280;40975;50.390;8.640;2022-10-22T09:40:57;99073.84;;;27.91;62.80
54389;BME280;40975;50.390;8.640;2022-10-22T09:43:23;99077.84;;;27.45;64.61
54389;BME280;40975;50.390;8.640;2022-10-22T09:45:56;99075.94;;;26.69;74.53
54389;BME280;40975;50.390;8.640;2022-10-22T09:48:36;99072.34;;;27.40;72.46
54389;BME280;40975;50.390;8.640;2022-10-22T09:51:25;99079.75;;;27.18;66.77
54389;BME280;40975;50.390;8.640;2022-10-22T09:54:07;99079.59;;;27.02;70.02
54389;BME280;40975;50.390;8.640;2022-10-22T09:56:41;99081.41;;;27.46;70.05
54389;BME280;40975;50.390;8.640;2022-10-22T09:59:18;99080.56;;;27.45;68.90
54389;BME280;40975;50.390;8.640;2022-10-22T10:01:56;99080.41;;;25.17;76.04
54389;BME280;40975;50.390;8.640;2022-10-22T10:04:21;99079.78;;;26.51;66.72
54389;BME280;40975;50.390;8.640;2022-10-22T10:06:53;99085.00;;;27.24;64.80
54389;BME280;40975;50.390;8.640;2022-10-22T10:09:21;99088.22;;;28.14;62.50
54389;BME280;40975;50.390;8.640;2022-10-22T10:12:13;99093.66;;;27.76;65.69
54389;BME280;40975;50.390;8.640;2022-10-22T10:17:29;99096.63;;;23.87;77.19
54389;BME280;40975;50.390;8.640;2022-10-22T10:20:15;99093.66;;;22.36;85.51
54389;BME280;40975;50.390;8.640;2022-10-22T10:22:54;99090.88;;;21.17;88.27
54389;BME280;40975;50.390;8.640;2022-10-22T10:25:33;99089.84;;;20.59;92.83
54389;BME280;40975;50.390;8.640;2022-10-22T10:28:22;99088.53;;;20.02;91.92
54389;BME280;40975;50.390;8.640;2022-10-22T10:33:53;99094.06;;;23.38;77.94
54389;BME280;40975;50.390;8.640;2022-10-22T10:39:10;99086.19;;;24.15;82.30
54389;BME280;40975;50.390;8.640;2022-10-22T10:42:01;99085.34;;;23.06;81.28
54389;BME280;40975;50.390;8.640;2022-10-22T10:44:58;99090.97;;;21.93;89.21
54389;BME280;40975;50.390;8.640;2022-10-22T10:49:54;99085.16;;;20.27;100.00
54389;BME280;40975;50.390;8.640;2022-10-22T10:52:35;99079.75;;;20.34;99.11
54389;BME280;40975;50.390;8.640;2022-10-22T10:58:02;99085.84;;;19.89;100.00
54389;BME280;40975;50.390;8.640;2022-10-22T11:00:37;99074.44;;;19.94;100.00
54389;BME280;40975;50.390;8.640;2022-10-22T11:03:39;99078.34;;;20.25;100.00
54389;BME280;40975;50.390;8.640;2022-10-22T11:06:18;99071.44;;;20.49;98.92
54389;BME280;40975;50.390;8.640;2022-10-22T11:09:06;99075.06;;;19.89;100.00
54389;BME280;40975;50.390;8.640;2022-10-22T11:11:58;99082.31;;;19.82;100.00
54389;BME280;40975;50.390;8.640;2022-10-22T11:14:35;99092.34;;;19.06;99.45
54389;BME280;40975;50.390;8.640;2022-10-22T11:17:07;99082.94;;;18.82;100.00
54389;BME280;40975;50.390;8.640;2022-10-22T11:22:18;99081.59;;;19.06;100.00
54389;BME280;40975;50.390;8.640;2022-10-22T11:25:02;99089.91;;;19.11;100.00
54389;BME280;40975;50.390;8.640;2022-10-22T11:27:41;99078.16;;;19.39;100.00
54389;BME280;40975;50.390;8.640;2022-10-22T11:30:35;99070.72;;;19.41;100.00
54389;BME280;40975;50.390;8.640;2022-10-22T11:33:04;99073.59;;;19.53;100.00
54389;BME280;40975;50.390;8.640;2022-10-22T11:35:33;99074.44;;;19.67;100.00
54389;BME280;40975;50.390;8.640;2022-10-22T11:38:00;99071.75;;;19.94;100.00
54389;BME280;40975;50.390;8.640;2022-10-22T11:43:26;99075.84;;;19.22;100.00
54389;BME280;40975;50.390;8.640;2022-10-22T11:46:01;99081.41;;;19.01;100.00
54389;BME280;40975;50.390;8.640;2022-10-22T11:48:33;99077.09;;;18.64;100.00
54389;BME280;40975;50.390;8.640;2022-10-22T11:51:00;99074.47;;;18.36;100.00
54389;BME280;40975;50.390;8.640;2022-10-22T11:53:32;99073.22;;;18.03;100.00
54389;BME280;40975;50.390;8.640;2022-10-22T12:03:42;99072.78;;;17.71;100.00
54389;BME280;40975;50.390;8.640;2022-10-22T12:08:44;99075.25;;;18.30;100.00
54389;BME280;40975;50.390;8.640;2022-10-22T12:16:24;99070.56;;;18.39;100.00
54389;BME280;40975;50.390;8.640;2022-10-22T12:19:00;99074.00;;;18.68;100.00
54389;BME280;40975;50.390;8.640;2022-10-22T12:21:26;99067.22;;;18.85;100.00
54389;BME280;40975;50.390;8.640;2022-10-22T12:23:52;99066.94;;;19.15;100.00
54389;BME280;40975;50.390;8.640;2022-10-22T12:26:28;99062.03;;;19.79;100.00
54389;BME280;40975;50.390;8.640;2022-10-22T12:28:58;99061.16;;;20.12;100.00
54389;BME280;40975;50.390;8.640;2022-10-22T12:31:24;99058.66;;;20.31;100.00
54389;BME280;40975;50.390;8.640;2022-10-22T12:33:57;99056.44;;;19.54;100.00
54389;BME280;40975;50.390;8.640;2022-10-22T12:36:25;99059.19;;;18.92;100.00
54389;BME280;40975;50.390;8.640;2022-10-22T12:38:51;99055.19;;;18.68;100.00
54389;BME280;40975;50.390;8.640;2022-10-22T12:41:16;99053.16;;;18.34;100.00
54389;BME280;40975;50.390;8.640;2022-10-22T12:43:42;99064.03;;;18.20;100.00
54389;BME280;40975;50.390;8.640;2022-10-22T12:46:11;99065.22;;;18.10;100.00
54389;BME280;40975;50.390;8.640;2022-10-22T12:48:40;99060.38;;;18.27;100.00
54389;BME280;40975;50.390;8.640;2022-10-22T12:51:08;99069.63;;;18.18;100.00
54389;BME280;40975;50.390;8.640;2022-10-22T12:53:41;99061.59;;;18.25;100.00
54389;BME280;40975;50.390;8.640;2022-10-22T12:56:13;99060.69;;;17.82;100.00
54389;BME280;40975;50.390;8.640;2022-10-22T12:58:45;99063.94;;;17.78;100.00
54389;BME280;40975;50.390;8.640;2022-10-22T13:01:12;99068.53;;;17.55;100.00
54389;BME280;40975;50.390;8.640;2022-10-22T13:03:44;99070.00;;;17.36;100.00
54389;BME280;40975;50.390;8.640;2022-10-22T13:08:42;99071.88;;;18.14;100.00
54389;BME280;40975;50.390;8.640;2022-10-22T13:11:09;99075.09;;;18.38;100.00
54389;BME280;40975;50.390;8.640;2022-10-22T13:16:21;99080.53;;;18.93;100.00
54389;BME280;40975;50.390;8.640;2022-10-22T13:18:52;99081.84;;;19.11;100.00
54389;BME280;40975;50.390;8.640;2022-10-22T13:21:37;99081.00;;;19.17;100.00
54389;BME280;40975;50.390;8.640;2022-10-22T13:24:20;99077.25;;;19.05;100.00
54389;BME280;40975;50.390;8.640;2022-10-22T13:26:51;99081.84;;;18.69;100.00
54389;BME280;40975;50.390;8.640;2022-10-22T13:29:19;99089.41;;;18.45;100.00
54389;BME280;40975;50.390;8.640;2022-10-22T13:31:47;99080.25;;;18.05;100.00
54389;BME280;40975;50.390;8.640;2022-10-22T13:34:18;99080.69;;;18.01;100.00
54389;BME280;40975;50.390;8.640;2022-10-22T13:36:44;99077.69;;;18.18;100.00
54389;BME280;40975;50.390;8.640;2022-10-22T13:39:22;99076.50;;;18.27;100.00
54389;BME280;40975;50.390;8.640;2022-10-22T13:41:48;99080.25;;;18.05;100.00
54389;BME280;40975;50.390;8.640;2022-10-22T13:44:15;99084.88;;;18.11;100.00
54389;BME280;40975;50.390;8.640;2022-10-22T13:46:41;99079.28;;;18.12;100.00
54389;BME280;40975;50.390;8.640;2022-10-22T13:49:15;99072.47;;;18.10;100.00
54389;BME280;40975;50.390;8.640;2022-10-22T13:51:42;99082.50;;;18.01;100.00
54389;BME280;40975;50.390;8.640;2022-10-22T13:54:15;99087.03;;;17.72;100.00
54389;BME280;40975;50.390;8.640;2022-10-22T13:56:40;99089.78;;;17.57;100.00
54389;BME280;40975;50.390;8.640;2022-10-22T13:59:07;99090.88;;;17.41;100.00
54389;BME280;40975;50.390;8.640;2022-10-22T14:01:33;99087.25;;;17.49;100.00
54389;BME280;40975;50.390;8.640;2022-10-22T14:03:59;99083.53;;;17.28;100.00
54389;BME280;40975;50.390;8.640;2022-10-22T14:06:28;99080.28;;;17.54;100.00
54389;BME280;40975;50.390;8.640;2022-10-22T14:09:00;99081.00;;;17.42;100.00
54389;BME280;40975;50.390;8.640;2022-10-22T14:11:26;99082.94;;;17.11;100.00